createdAt,value
2019-04-21T00:01:56.084Z,8.73
2019-04-21T00:04:39.235Z,8.30
2019-04-21T00:07:31.343Z,8.70
2019-04-21T00:09:53.754Z,8.43
2019-04-21T00:12:18.265Z,8.23
2019-04-21T00:14:46.198Z,8.40
2019-04-21T00:17:09.511Z,9.00
2019-04-21T00:19:41.246Z,8.53
2019-04-21T00:22:23.754Z,8.20
2019-04-21T00:24:58.569Z,9.03
2019-04-21T00:27:28.326Z,11.13
2019-04-21T00:30:04.543Z,9.00
2019-04-21T00:32:31.382Z,8.00
2019-04-21T00:34:56.250Z,9.20
2019-04-21T00:37:31.818Z,9.90
2019-04-21T00:40:32.813Z,9.17
2019-04-21T00:42:43.627Z,9.77
2019-04-21T00:45:09.570Z,9.57
2019-04-21T00:47:46.167Z,11.13
2019-04-21T00:50:18.013Z,9.07
2019-04-21T00:53:00.213Z,9.20
2019-04-21T00:55:45.981Z,9.83
2019-04-21T00:58:18.404Z,10.30
2019-04-21T01:00:46.478Z,9.70
2019-04-21T01:03:20.677Z,8.73
2019-04-21T01:05:53.176Z,9.23
2019-04-21T01:08:21.740Z,9.53
2019-04-21T01:10:43.974Z,9.23
2019-04-21T01:13:27.267Z,11.00
2019-04-21T01:15:53.076Z,12.03
2019-04-21T01:18:28.931Z,10.00
2019-04-21T01:20:37.249Z,9.50
2019-04-21T01:23:06.691Z,10.97
2019-04-21T01:25:41.549Z,10.77
2019-04-21T01:28:27.024Z,8.80
2019-04-21T01:30:56.899Z,9.93
2019-04-21T01:33:34.864Z,9.30
2019-04-21T01:36:02.519Z,9.60
2019-04-21T01:38:40.149Z,10.63
2019-04-21T01:41:08.378Z,9.30
2019-04-21T01:43:33.467Z,8.67
2019-04-21T01:46:06.655Z,9.40
2019-04-21T01:48:34.155Z,10.33
2019-04-21T01:51:05.410Z,10.60
2019-04-21T01:53:45.655Z,10.10
2019-04-21T01:56:35.769Z,10.60
2019-04-21T01:58:53.926Z,12.47
2019-04-21T02:01:35.971Z,14.87
2019-04-21T02:04:12.189Z,21.20
2019-04-21T02:06:39.171Z,10.20
2019-04-21T02:09:06.468Z,10.83
2019-04-21T02:11:43.985Z,15.20
2019-04-21T02:14:14.721Z,10.73
2019-04-21T02:16:48.251Z,10.03
2019-04-21T02:19:11.450Z,9.67
2019-04-21T02:21:39.308Z,10.20
2019-04-21T02:24:33.240Z,10.30
2019-04-21T02:26:52.942Z,9.23
2019-04-21T02:29:29.029Z,10.47
2019-04-21T02:32:14.631Z,10.07
2019-04-21T02:34:49.081Z,9.20
2019-04-21T02:40:00.371Z,10.33
2019-04-21T02:42:26.466Z,13.70
2019-04-21T02:47:36.685Z,9.93
2019-04-21T02:52:41.426Z,10.00
2019-04-21T02:55:02.359Z,11.17
2019-04-21T02:57:39.572Z,9.30
2019-04-21T03:00:23.826Z,11.00
2019-04-21T03:03:21.431Z,11.53
2019-04-21T03:05:48.862Z,11.07
2019-04-21T03:08:14.376Z,18.03
2019-04-21T03:10:56.227Z,10.50
2019-04-21T03:13:21.688Z,10.73
2019-04-21T03:18:24.246Z,9.53
2019-04-21T03:21:00.080Z,10.00
2019-04-21T03:26:00.873Z,9.10
2019-04-21T03:28:33.900Z,9.37
2019-04-21T03:31:25.463Z,10.53
2019-04-21T03:34:15.763Z,9.20
2019-04-21T03:38:40.446Z,9.93
2019-04-21T03:41:05.090Z,9.93
2019-04-21T03:43:34.878Z,10.53
2019-04-21T03:46:26.572Z,10.80
2019-04-21T03:48:54.023Z,9.87
2019-04-21T03:53:40.465Z,11.00
2019-04-21T03:56:14.765Z,10.00
2019-04-21T03:59:01.849Z,11.00
2019-04-21T04:01:32.407Z,10.47
2019-04-21T04:06:43.039Z,10.87
2019-04-21T04:14:26.738Z,10.13
2019-04-21T04:17:11.681Z,10.27
2019-04-21T04:19:27.046Z,10.53
2019-04-21T04:27:11.182Z,10.93
2019-04-21T04:29:24.222Z,10.37
2019-04-21T04:31:55.351Z,9.77
2019-04-21T04:34:41.644Z,11.33
2019-04-21T04:42:21.320Z,10.40
2019-04-21T04:47:20.462Z,10.13
2019-04-21T04:54:55.846Z,13.93
2019-04-21T04:57:34.328Z,13.60
2019-04-21T05:00:01.193Z,11.80
2019-04-21T05:05:11.460Z,10.23
2019-04-21T05:07:33.736Z,10.80
2019-04-21T05:12:29.537Z,11.20
2019-04-21T05:15:06.433Z,11.17
2019-04-21T05:17:37.690Z,10.53
2019-04-21T05:20:11.634Z,11.73
2019-04-21T05:22:35.309Z,10.70
2019-04-21T05:24:54.329Z,12.33
2019-04-21T05:27:33.616Z,13.67
2019-04-21T05:30:16.873Z,12.00
2019-04-21T05:33:07.003Z,13.67
2019-04-21T05:35:45.290Z,12.80
2019-04-21T05:38:22.112Z,13.73
2019-04-21T05:40:43.731Z,12.90
2019-04-21T05:43:28.132Z,14.43
2019-04-21T05:46:10.488Z,12.33
2019-04-21T05:48:35.376Z,14.43
2019-04-21T05:50:59.145Z,15.50
2019-04-21T05:53:49.286Z,14.57
2019-04-21T05:56:12.882Z,16.50
2019-04-21T05:58:37.856Z,14.80
2019-04-21T06:01:23.753Z,15.77
2019-04-21T06:03:54.878Z,13.57
2019-04-21T06:06:28.959Z,13.13
2019-04-21T06:08:56.411Z,13.13
2019-04-21T06:11:28.872Z,12.93
2019-04-21T06:14:04.418Z,25.43
2019-04-21T06:16:40.378Z,21.17
2019-04-21T06:18:58.779Z,21.40
2019-04-21T06:21:33.161Z,15.80
2019-04-21T06:24:03.757Z,21.00
2019-04-21T06:26:50.286Z,18.17
2019-04-21T06:29:03.994Z,17.10
2019-04-21T06:32:05.550Z,16.80
2019-04-21T06:34:11.137Z,15.83
2019-04-21T06:36:47.097Z,13.80
2019-04-21T06:39:17.908Z,13.80
2019-04-21T06:41:46.207Z,13.87
2019-04-21T06:44:16.495Z,11.83
2019-04-21T06:46:48.899Z,13.33
2019-04-21T06:49:19.448Z,17.00
2019-04-21T06:51:54.576Z,15.43
2019-04-21T06:54:29.192Z,14.23
2019-04-21T06:56:56.777Z,13.80
2019-04-21T06:59:26.631Z,12.63
2019-04-21T07:02:32.137Z,12.00
2019-04-21T07:04:51.793Z,15.17
2019-04-21T07:06:59.290Z,12.23
2019-04-21T07:09:31.313Z,12.00
2019-04-21T07:12:06.147Z,11.40
2019-04-21T07:14:44.097Z,11.70
2019-04-21T07:17:11.549Z,11.97
2019-04-21T07:19:49.740Z,10.93
2019-04-21T07:22:14.590Z,11.00
2019-04-21T07:24:42.979Z,9.20
2019-04-21T07:27:17.569Z,10.43
2019-04-21T07:29:52.561Z,8.60
2019-04-21T07:32:19.121Z,9.27
2019-04-21T07:35:00.602Z,9.50
2019-04-21T07:37:21.978Z,10.53
2019-04-21T07:39:52.135Z,9.83
2019-04-21T07:42:19.274Z,10.23
2019-04-21T07:44:49.445Z,9.27
2019-04-21T07:47:27.923Z,9.10
2019-04-21T07:50:00.921Z,9.53
2019-04-21T07:52:42.052Z,8.60
2019-04-21T07:55:18.621Z,8.70
2019-04-21T07:57:35.411Z,8.40
2019-04-21T08:00:29.750Z,9.53
2019-04-21T08:02:40.654Z,8.27
2019-04-21T08:05:19.901Z,9.27
2019-04-21T08:10:15.706Z,8.90
2019-04-21T08:12:49.678Z,9.27
2019-04-21T08:15:30.707Z,8.50
2019-04-21T08:18:07.532Z,9.57
2019-04-21T08:20:25.909Z,9.03
2019-04-21T08:23:01.017Z,8.40
2019-04-21T08:25:27.719Z,7.77
2019-04-21T08:27:58.624Z,7.93
2019-04-21T08:30:32.087Z,8.30
2019-04-21T08:33:19.151Z,7.87
2019-04-21T08:35:55.339Z,7.97
2019-04-21T08:38:11.774Z,8.73
2019-04-21T08:40:40.860Z,7.83
2019-04-21T08:43:10.922Z,9.23
2019-04-21T08:45:41.497Z,8.47
2019-04-21T08:48:17.148Z,8.93
2019-04-21T08:50:44.143Z,8.20
2019-04-21T08:53:15.201Z,7.93
2019-04-21T08:56:04.442Z,9.97
2019-04-21T08:58:38.934Z,7.30
2019-04-21T09:01:14.137Z,7.13
2019-04-21T09:03:56.826Z,7.53
2019-04-21T09:06:31.689Z,7.10
2019-04-21T09:08:57.714Z,7.63
2019-04-21T09:11:30.688Z,6.83
2019-04-21T09:14:01.070Z,9.80
2019-04-21T09:16:27.790Z,6.63
2019-04-21T09:18:54.411Z,6.47
2019-04-21T09:21:37.482Z,6.40
2019-04-21T09:24:07.470Z,7.97
2019-04-21T09:26:36.954Z,6.10
2019-04-21T09:29:00.737Z,6.63
2019-04-21T09:31:28.263Z,6.20
2019-04-21T09:33:54.406Z,6.20
2019-04-21T09:36:25.325Z,6.93
2019-04-21T09:39:00.195Z,6.73
2019-04-21T09:41:27.807Z,6.60
2019-04-21T09:43:59.273Z,7.40
2019-04-21T09:46:29.898Z,7.77
2019-04-21T09:49:04.127Z,8.00
2019-04-21T09:51:30.856Z,6.60
2019-04-21T09:54:05.726Z,7.00
2019-04-21T09:56:41.494Z,8.20
2019-04-21T09:59:13.706Z,6.20
2019-04-21T10:01:52.658Z,6.37
2019-04-21T10:04:07.734Z,6.03
2019-04-21T10:06:39.554Z,6.17
2019-04-21T10:09:13.870Z,7.00
2019-04-21T10:11:41.692Z,6.67
2019-04-21T10:14:11.725Z,6.07
2019-04-21T10:16:46.830Z,6.40
2019-04-21T10:19:17.432Z,6.07
2019-04-21T10:21:48.251Z,6.30
2019-04-21T10:24:18.031Z,6.90
2019-04-21T10:26:47.595Z,6.90
2019-04-21T10:29:24.503Z,6.73
2019-04-21T10:31:50.451Z,5.60
2019-04-21T10:34:21.125Z,8.60
2019-04-21T10:36:51.183Z,6.20
2019-04-21T10:39:21.714Z,7.30
2019-04-21T10:41:51.379Z,6.87
2019-04-21T10:44:21.112Z,5.70
2019-04-21T10:46:54.030Z,6.97
2019-04-21T10:49:24.387Z,7.00
2019-04-21T10:51:55.000Z,6.60
2019-04-21T10:54:26.086Z,5.77
2019-04-21T10:56:58.584Z,5.93
2019-04-21T10:59:29.052Z,5.90
2019-04-21T11:02:01.503Z,5.70
2019-04-21T11:04:36.825Z,6.13
2019-04-21T11:07:11.380Z,5.87
2019-04-21T11:09:37.914Z,6.60
2019-04-21T11:12:08.258Z,6.30
2019-04-21T11:14:39.175Z,6.43
2019-04-21T11:17:10.103Z,6.03
2019-04-21T11:19:41.002Z,5.90
2019-04-21T11:22:12.660Z,6.23
2019-04-21T11:24:43.007Z,5.50
2019-04-21T11:27:14.955Z,6.63
2019-04-21T11:29:44.542Z,8.87
2019-04-21T11:32:14.764Z,5.80
2019-04-21T11:34:45.320Z,6.23
2019-04-21T11:37:16.503Z,6.87
2019-04-21T11:39:52.129Z,5.73
2019-04-21T11:42:20.091Z,7.67
2019-04-21T11:44:49.555Z,5.87
2019-04-21T11:47:24.791Z,6.00
2019-04-21T11:49:54.929Z,6.30
2019-04-21T11:52:25.046Z,5.80
2019-04-21T11:54:55.091Z,5.93
2019-04-21T11:57:30.437Z,6.00
2019-04-21T11:59:55.952Z,5.50
2019-04-21T12:02:27.636Z,6.10
2019-04-21T12:04:57.330Z,5.90
2019-04-21T12:07:29.308Z,5.37
2019-04-21T12:09:59.693Z,6.40
2019-04-21T12:12:29.610Z,5.77
2019-04-21T12:14:59.902Z,6.57
2019-04-21T12:17:29.988Z,5.70
2019-04-21T12:20:00.955Z,6.57
2019-04-21T12:22:33.928Z,6.47
2019-04-21T12:25:07.068Z,7.93
2019-04-21T12:27:38.062Z,6.27
2019-04-21T12:30:09.351Z,5.60
2019-04-21T12:32:57.992Z,5.80
2019-04-21T12:35:28.093Z,5.93
2019-04-21T12:37:58.491Z,5.87
2019-04-21T12:40:30.558Z,5.73
2019-04-21T12:43:00.942Z,5.43
2019-04-21T12:45:31.977Z,6.30
2019-04-21T12:48:02.140Z,5.40
2019-04-21T12:50:34.090Z,5.97
2019-04-21T12:53:05.099Z,6.23
2019-04-21T12:55:37.481Z,6.40
2019-04-21T12:58:07.568Z,5.33
2019-04-21T13:00:38.905Z,5.80
2019-04-21T13:03:09.809Z,5.90
2019-04-21T13:05:39.971Z,6.43
2019-04-21T13:08:09.554Z,5.40
2019-04-21T13:10:40.464Z,5.60
2019-04-21T13:13:10.088Z,5.37
2019-04-21T13:15:41.119Z,6.40
2019-04-21T13:18:10.707Z,6.10
2019-04-21T13:20:42.244Z,5.63
2019-04-21T13:23:12.233Z,5.80
2019-04-21T13:25:43.686Z,4.70
2019-04-21T13:28:14.522Z,6.10
2019-04-21T13:30:44.475Z,6.70
2019-04-21T13:33:15.314Z,5.53
2019-04-21T13:35:46.827Z,5.40
2019-04-21T13:38:24.245Z,6.03
2019-04-21T13:41:07.807Z,6.60
2019-04-21T13:43:21.056Z,6.10
2019-04-21T13:45:52.203Z,5.87
2019-04-21T13:48:22.409Z,5.67
2019-04-21T13:50:53.496Z,5.70
2019-04-21T13:53:23.249Z,6.07
2019-04-21T13:55:52.958Z,6.13
2019-04-21T13:58:22.564Z,5.87
2019-04-21T14:00:54.206Z,7.17
2019-04-21T14:03:26.559Z,6.03
2019-04-21T14:05:56.299Z,6.03
2019-04-21T14:08:27.252Z,5.93
2019-04-21T14:10:59.707Z,6.23
2019-04-21T14:13:30.305Z,5.90
2019-04-21T14:16:02.147Z,5.67
2019-04-21T14:18:32.902Z,6.03
2019-04-21T14:21:03.123Z,6.27
2019-04-21T14:23:38.557Z,6.60
2019-04-21T14:26:03.938Z,6.00
2019-04-21T14:28:33.731Z,5.80
2019-04-21T14:31:04.434Z,5.40
2019-04-21T14:33:34.202Z,5.90
2019-04-21T14:36:05.091Z,5.87
2019-04-21T14:38:34.650Z,6.10
2019-04-21T14:41:04.087Z,5.03
2019-04-21T14:43:34.183Z,5.70
2019-04-21T14:46:11.084Z,5.47
2019-04-21T14:49:01.213Z,5.27
2019-04-21T14:51:41.006Z,5.37
2019-04-21T14:54:28.858Z,5.20
2019-04-21T14:57:00.927Z,5.83
2019-04-21T14:59:31.132Z,5.60
2019-04-21T15:02:02.420Z,5.20
2019-04-21T15:04:33.351Z,5.43
2019-04-21T15:07:03.364Z,5.00
2019-04-21T15:09:37.044Z,5.60
2019-04-21T15:12:05.732Z,5.07
2019-04-21T15:14:35.987Z,6.53
2019-04-21T15:17:06.937Z,5.17
2019-04-21T15:19:36.491Z,5.20
2019-04-21T15:22:06.235Z,5.77
2019-04-21T15:24:36.273Z,6.13
2019-04-21T15:27:07.084Z,6.20
2019-04-21T15:29:36.727Z,6.23
2019-04-21T15:32:06.370Z,5.60
2019-04-21T15:34:36.099Z,7.03
2019-04-21T15:37:06.148Z,5.67
2019-04-21T15:39:35.726Z,6.03
2019-04-21T15:42:06.239Z,6.33
2019-04-21T15:44:36.708Z,5.90
2019-04-21T15:47:08.198Z,6.00
2019-04-21T15:50:01.168Z,6.17
2019-04-21T15:52:26.010Z,5.70
2019-04-21T15:54:57.159Z,5.70
2019-04-21T15:57:40.509Z,5.90
2019-04-21T16:00:16.393Z,6.17
2019-04-21T16:02:48.572Z,7.57
2019-04-21T16:05:19.060Z,9.13
2019-04-21T16:07:50.009Z,5.87
2019-04-21T16:10:33.680Z,5.60
2019-04-21T16:12:52.127Z,5.57
2019-04-21T16:15:22.785Z,5.53
2019-04-21T16:17:53.264Z,5.73
2019-04-21T16:20:24.031Z,6.03
2019-04-21T16:22:54.841Z,5.17
2019-04-21T16:25:26.732Z,5.90
2019-04-21T16:27:57.247Z,5.70
2019-04-21T16:30:28.678Z,6.80
2019-04-21T16:32:58.159Z,5.50
2019-04-21T16:35:29.605Z,5.60
2019-04-21T16:38:01.278Z,5.53
2019-04-21T16:40:53.708Z,6.40
2019-04-21T16:43:16.370Z,5.67
2019-04-21T16:45:48.705Z,5.60
2019-04-21T16:48:19.107Z,5.50
2019-04-21T16:50:49.978Z,5.60
2019-04-21T16:53:28.148Z,5.67
2019-04-21T16:56:15.271Z,5.60
2019-04-21T16:58:50.589Z,5.50
2019-04-21T17:01:27.379Z,5.40
2019-04-21T17:03:58.316Z,5.40
2019-04-21T17:06:29.298Z,5.60
2019-04-21T17:08:59.091Z,5.50
2019-04-21T17:11:34.708Z,5.60
2019-04-21T17:14:01.216Z,4.70
2019-04-21T17:19:13.418Z,5.33
2019-04-21T17:21:35.423Z,4.60
2019-04-21T17:24:06.349Z,5.17
2019-04-21T17:26:39.037Z,5.17
2019-04-21T17:29:06.934Z,5.10
2019-04-21T17:31:38.946Z,4.47
2019-04-21T17:34:14.539Z,4.73
2019-04-21T17:36:41.046Z,5.20
2019-04-21T17:39:11.132Z,5.73
2019-04-21T17:41:55.993Z,5.23
2019-04-21T17:44:12.119Z,5.73
2019-04-21T17:46:48.562Z,5.23
2019-04-21T17:49:12.877Z,5.23
2019-04-21T17:51:53.726Z,4.83
2019-04-21T17:54:27.599Z,6.03
2019-04-21T17:57:17.835Z,5.33
2019-04-21T17:59:56.599Z,5.37
2019-04-21T18:02:09.407Z,4.80
2019-04-21T18:04:49.626Z,5.87
2019-04-21T18:07:16.618Z,4.83
2019-04-21T18:09:56.201Z,4.73
2019-04-21T18:12:22.622Z,7.87
2019-04-21T18:14:51.512Z,4.87
2019-04-21T18:17:11.280Z,5.20
2019-04-21T18:19:43.625Z,5.10
2019-04-21T18:22:17.658Z,4.73
2019-04-21T18:24:56.708Z,5.70
2019-04-21T18:27:19.970Z,4.63
2019-04-21T18:29:50.508Z,5.33
2019-04-21T18:32:26.348Z,4.50
2019-04-21T18:35:13.284Z,4.60
2019-04-21T18:37:49.254Z,4.53
2019-04-21T18:40:21.682Z,4.60
2019-04-21T18:43:32.683Z,5.10
2019-04-21T18:46:07.033Z,4.70
2019-04-21T18:48:21.973Z,4.80
2019-04-21T18:50:57.094Z,4.90
2019-04-21T18:53:41.200Z,6.43
2019-04-21T18:56:00.129Z,5.20
2019-04-21T18:58:26.761Z,5.27
2019-04-21T19:01:04.499Z,6.30
2019-04-21T19:03:35.874Z,5.43
2019-04-21T19:06:08.051Z,6.07
2019-04-21T19:08:53.354Z,5.10
2019-04-21T19:11:23.726Z,6.03
2019-04-21T19:14:20.783Z,5.50
2019-04-21T19:16:45.551Z,7.60
2019-04-21T19:19:34.206Z,7.57
2019-04-21T19:21:40.529Z,7.13
2019-04-21T19:26:55.614Z,5.33
2019-04-21T19:29:26.701Z,6.00
2019-04-21T19:31:49.718Z,5.60
2019-04-21T19:34:13.220Z,5.90
2019-04-21T19:36:33.184Z,6.10
2019-04-21T19:39:12.807Z,6.10
2019-04-21T19:41:50.962Z,5.47
2019-04-21T19:44:31.989Z,5.60
2019-04-21T19:46:58.704Z,5.90
2019-04-21T19:49:32.098Z,5.20
2019-04-21T19:51:52.299Z,5.40
2019-04-21T19:54:22.888Z,7.33
2019-04-21T19:56:46.926Z,14.27
2019-04-21T19:59:22.184Z,7.07
2019-04-21T20:01:51.255Z,6.47
2019-04-21T20:04:20.133Z,6.93
2019-04-21T20:07:01.155Z,6.77
2019-04-21T20:09:37.080Z,5.77
2019-04-21T20:12:08.231Z,5.50
2019-04-21T20:17:08.333Z,6.07
2019-04-21T20:19:26.716Z,6.00
2019-04-21T20:21:58.881Z,5.77
2019-04-21T20:24:33.669Z,5.97
2019-04-21T20:27:07.527Z,5.57
2019-04-21T20:29:54.159Z,5.73
2019-04-21T20:32:24.754Z,5.53
2019-04-21T20:34:57.720Z,6.23
2019-04-21T20:37:20.694Z,5.60
2019-04-21T20:39:46.312Z,6.20
2019-04-21T20:42:20.897Z,5.73
2019-04-21T20:45:13.493Z,6.60
2019-04-21T20:47:19.837Z,6.03
2019-04-21T20:49:50.839Z,6.00
2019-04-21T20:52:35.572Z,7.77
2019-04-21T20:54:59.525Z,6.20
2019-04-21T20:57:29.957Z,6.07
2019-04-21T21:00:09.126Z,5.90
2019-04-21T21:02:44.694Z,6.33
2019-04-21T21:04:59.066Z,7.17
2019-04-21T21:07:45.795Z,6.23
2019-04-21T21:10:14.089Z,5.80
2019-04-21T21:12:49.072Z,6.10
2019-04-21T21:15:09.034Z,6.37
2019-04-21T21:17:52.617Z,6.10
2019-04-21T21:20:20.916Z,5.83
2019-04-21T21:22:48.102Z,5.53
2019-04-21T21:25:32.498Z,5.50
2019-04-21T21:27:48.472Z,6.23
2019-04-21T21:30:24.648Z,6.37
2019-04-21T21:32:54.440Z,6.57
2019-04-21T21:35:21.523Z,6.20
2019-04-21T21:37:59.695Z,6.10
2019-04-21T21:40:30.337Z,6.97
2019-04-21T21:42:48.076Z,6.53
2019-04-21T21:45:21.517Z,6.23
2019-04-21T21:48:06.942Z,6.30
2019-04-21T21:50:29.862Z,6.53
2019-04-21T21:53:00.752Z,6.13
2019-04-21T21:55:25.648Z,6.57
2019-04-21T21:58:01.182Z,6.63
2019-04-21T22:00:28.014Z,6.23
2019-04-21T22:03:03.527Z,7.00
2019-04-21T22:05:37.529Z,6.23
2019-04-21T22:08:00.577Z,7.17
2019-04-21T22:10:31.358Z,6.63
2019-04-21T22:13:08.226Z,8.07
2019-04-21T22:15:33.806Z,8.43
2019-04-21T22:18:25.807Z,6.97
2019-04-21T22:20:55.085Z,7.33
2019-04-21T22:23:13.231Z,6.53
2019-04-21T22:25:41.891Z,6.33
2019-04-21T22:28:11.669Z,6.47
2019-04-21T22:30:46.232Z,8.50
2019-04-21T22:33:15.828Z,6.50
2019-04-21T22:35:51.745Z,6.23
2019-04-21T22:38:31.074Z,5.77
2019-04-21T22:41:00.297Z,7.30
2019-04-21T22:43:29.160Z,7.30
2019-04-21T22:45:53.713Z,5.40
2019-04-21T22:48:28.268Z,5.57
2019-04-21T22:50:54.355Z,5.83
2019-04-21T22:53:29.148Z,5.83
2019-04-21T22:56:00.093Z,6.13
2019-04-21T22:58:31.659Z,6.03
2019-04-21T23:01:01.876Z,6.10
2019-04-21T23:03:30.795Z,7.47
2019-04-21T23:06:07.475Z,5.50
2019-04-21T23:08:36.968Z,5.90
2019-04-21T23:11:06.548Z,5.87
2019-04-21T23:13:34.557Z,7.63
2019-04-21T23:16:06.180Z,7.13
2019-04-21T23:18:48.090Z,6.03
2019-04-21T23:21:21.186Z,6.03
2019-04-21T23:23:59.622Z,6.00
2019-04-21T23:26:30.941Z,7.37
2019-04-21T23:29:02.630Z,6.10
2019-04-21T23:31:37.166Z,5.73
2019-04-21T23:33:46.542Z,5.93
2019-04-21T23:36:21.021Z,6.00
2019-04-21T23:38:50.117Z,5.67
2019-04-21T23:41:19.576Z,6.03
2019-04-21T23:43:55.431Z,6.27
2019-04-21T23:46:26.203Z,5.90
2019-04-21T23:49:08.590Z,5.87
2019-04-21T23:51:36.998Z,5.00
2019-04-21T23:53:55.413Z,5.53
2019-04-21T23:56:32.920Z,5.73
2019-04-21T23:59:01.065Z,5.63
